sensor_id;sensor_type;location;lat;lon;timestamp;temperature;humidity
15969;DHT22;8085;53.472;9.794;2023-07-31T00:01:42;14.20;99.90
15969;DHT22;8085;53.472;9.794;2023-07-31T00:04:09;14.20;99.90
15969;DHT22;8085;53.472;9.794;2023-07-31T00:06:36;14.20;99.90
15969;DHT22;8085;53.472;9.794;2023-07-31T00:09:03;14.20;99.90
15969;DHT22;8085;53.472;9.794;2023-07-31T00:11:31;14.20;99.90
15969;DHT22;8085;53.472;9.794;2023-07-31T00:13:58;14.20;99.90
15969;DHT22;8085;53.472;9.794;2023-07-31T00:16:25;14.20;99.90
15969;DHT22;8085;53.472;9.794;2023-07-31T00:18:52;14.20;99.90
15969;DHT22;8085;53.472;9.794;2023-07-31T00:21:18;14.20;99.90
15969;DHT22;8085;53.472;9.794;2023-07-31T00:23:45;14.20;99.90
15969;DHT22;8085;53.472;9.794;2023-07-31T00:26:12;14.20;99.90
15969;DHT22;8085;53.472;9.794;2023-07-31T00:28:40;14.30;99.90
15969;DHT22;8085;53.472;9.794;2023-07-31T00:31:07;14.20;99.90
15969;DHT22;8085;53.472;9.794;2023-07-31T00:33:35;14.20;99.90
15969;DHT22;8085;53.472;9.794;2023-07-31T00:36:02;14.20;99.90
15969;DHT22;8085;53.472;9.794;2023-07-31T00:38:28;14.20;99.90
15969;DHT22;8085;53.472;9.794;2023-07-31T00:40:55;14.20;99.90
15969;DHT22;8085;53.472;9.794;2023-07-31T00:43:22;14.20;99.90
15969;DHT22;8085;53.472;9.794;2023-07-31T00:45:50;14.20;99.90
15969;DHT22;8085;53.472;9.794;2023-07-31T00:48:17;14.20;99.90
15969;DHT22;8085;53.472;9.794;2023-07-31T00:50:44;14.20;99.90
15969;DHT22;8085;53.472;9.794;2023-07-31T00:53:11;14.20;99.90
15969;DHT22;8085;53.472;9.794;2023-07-31T00:55:38;14.10;99.90
15969;DHT22;8085;53.472;9.794;2023-07-31T00:58:05;14.20;99.90
15969;DHT22;8085;53.472;9.794;2023-07-31T01:00:31;14.20;99.90
15969;DHT22;8085;53.472;9.794;2023-07-31T01:03:00;14.10;99.90
15969;DHT22;8085;53.472;9.794;2023-07-31T01:05:33;14.20;99.90
15969;DHT22;8085;53.472;9.794;2023-07-31T01:08:07;14.20;99.90
15969;DHT22;8085;53.472;9.794;2023-07-31T01:10:41;14.10;99.90
15969;DHT22;8085;53.472;9.794;2023-07-31T01:13:13;14.20;99.90
15969;DHT22;8085;53.472;9.794;2023-07-31T01:15:40;14.20;99.90
15969;DHT22;8085;53.472;9.794;2023-07-31T01:18:08;14.20;99.90
15969;DHT22;8085;53.472;9.794;2023-07-31T01:20:36;14.20;99.80
15969;DHT22;8085;53.472;9.794;2023-07-31T01:23:26;14.30;99.80
15969;DHT22;8085;53.472;9.794;2023-07-31T01:26:02;14.30;99.80
15969;DHT22;8085;53.472;9.794;2023-07-31T01:28:36;14.20;99.90
15969;DHT22;8085;53.472;9.794;2023-07-31T01:31:07;14.30;99.90
15969;DHT22;8085;53.472;9.794;2023-07-31T01:33:37;14.30;99.90
15969;DHT22;8085;53.472;9.794;2023-07-31T01:36:04;14.30;99.90
15969;DHT22;8085;53.472;9.794;2023-07-31T01:38:32;14.40;99.90
15969;DHT22;8085;53.472;9.794;2023-07-31T01:40:58;14.40;99.90
15969;DHT22;8085;53.472;9.794;2023-07-31T01:43:27;14.40;99.90
15969;DHT22;8085;53.472;9.794;2023-07-31T01:45:54;14.40;99.90
15969;DHT22;8085;53.472;9.794;2023-07-31T01:48:21;14.40;99.90
15969;DHT22;8085;53.472;9.794;2023-07-31T01:50:47;14.50;99.90
15969;DHT22;8085;53.472;9.794;2023-07-31T01:53:15;14.50;99.90
15969;DHT22;8085;53.472;9.794;2023-07-31T01:55:42;14.60;99.90
15969;DHT22;8085;53.472;9.794;2023-07-31T01:58:09;14.70;99.90
15969;DHT22;8085;53.472;9.794;2023-07-31T02:00:37;14.60;99.90
15969;DHT22;8085;53.472;9.794;2023-07-31T02:03:04;14.70;99.80
15969;DHT22;8085;53.472;9.794;2023-07-31T02:05:31;14.60;99.80
15969;DHT22;8085;53.472;9.794;2023-07-31T02:07:57;14.60;99.70
15969;DHT22;8085;53.472;9.794;2023-07-31T02:10:24;14.70;99.50
15969;DHT22;8085;53.472;9.794;2023-07-31T02:12:51;14.70;99.50
15969;DHT22;8085;53.472;9.794;2023-07-31T02:15:18;14.70;99.40
15969;DHT22;8085;53.472;9.794;2023-07-31T02:17:46;14.70;99.50
15969;DHT22;8085;53.472;9.794;2023-07-31T02:20:13;14.80;99.60
15969;DHT22;8085;53.472;9.794;2023-07-31T02:22:40;14.70;99.50
15969;DHT22;8085;53.472;9.794;2023-07-31T02:25:07;14.70;99.50
15969;DHT22;8085;53.472;9.794;2023-07-31T02:27:34;14.70;99.60
15969;DHT22;8085;53.472;9.794;2023-07-31T02:30:01;14.70;99.60
15969;DHT22;8085;53.472;9.794;2023-07-31T02:32:28;14.70;99.50
15969;DHT22;8085;53.472;9.794;2023-07-31T02:34:56;14.70;99.50
15969;DHT22;8085;53.472;9.794;2023-07-31T02:37:23;14.70;99.50
15969;DHT22;8085;53.472;9.794;2023-07-31T02:39:50;14.80;99.60
15969;DHT22;8085;53.472;9.794;2023-07-31T02:42:17;14.80;99.40
15969;DHT22;8085;53.472;9.794;2023-07-31T02:44:44;14.80;99.50
15969;DHT22;8085;53.472;9.794;2023-07-31T02:47:11;14.70;99.50
15969;DHT22;8085;53.472;9.794;2023-07-31T02:49:37;14.70;99.50
15969;DHT22;8085;53.472;9.794;2023-07-31T02:52:06;14.70;99.60
15969;DHT22;8085;53.472;9.794;2023-07-31T02:54:33;14.70;99.70
15969;DHT22;8085;53.472;9.794;2023-07-31T02:57:00;14.80;99.60
15969;DHT22;8085;53.472;9.794;2023-07-31T02:59:28;14.80;99.60
15969;DHT22;8085;53.472;9.794;2023-07-31T03:01:55;14.80;99.70
15969;DHT22;8085;53.472;9.794;2023-07-31T03:04:21;14.70;99.60
15969;DHT22;8085;53.472;9.794;2023-07-31T03:06:48;14.80;99.70
15969;DHT22;8085;53.472;9.794;2023-07-31T03:09:17;14.70;99.60
15969;DHT22;8085;53.472;9.794;2023-07-31T03:11:43;14.80;99.70
15969;DHT22;8085;53.472;9.794;2023-07-31T03:14:10;14.80;99.70
15969;DHT22;8085;53.472;9.794;2023-07-31T03:16:37;14.80;99.70
15969;DHT22;8085;53.472;9.794;2023-07-31T03:19:04;14.80;99.70
15969;DHT22;8085;53.472;9.794;2023-07-31T03:21:31;14.80;99.70
15969;DHT22;8085;53.472;9.794;2023-07-31T03:23:58;14.80;99.60
15969;DHT22;8085;53.472;9.794;2023-07-31T03:26:26;14.90;99.60
15969;DHT22;8085;53.472;9.794;2023-07-31T03:28:53;14.90;99.50
15969;DHT22;8085;53.472;9.794;2023-07-31T03:31:20;15.00;99.40
15969;DHT22;8085;53.472;9.794;2023-07-31T03:33:46;15.00;99.40
15969;DHT22;8085;53.472;9.794;2023-07-31T03:36:13;15.10;99.30
15969;DHT22;8085;53.472;9.794;2023-07-31T03:38:40;15.10;99.30
15969;DHT22;8085;53.472;9.794;2023-07-31T03:41:07;15.00;99.30
15969;DHT22;8085;53.472;9.794;2023-07-31T03:43:35;15.10;99.30
15969;DHT22;8085;53.472;9.794;2023-07-31T03:46:02;15.10;99.30
15969;DHT22;8085;53.472;9.794;2023-07-31T03:48:29;15.10;99.10
15969;DHT22;8085;53.472;9.794;2023-07-31T03:50:56;15.10;99.10
15969;DHT22;8085;53.472;9.794;2023-07-31T03:53:23;15.10;99.10
15969;DHT22;8085;53.472;9.794;2023-07-31T03:55:50;15.20;99.10
15969;DHT22;8085;53.472;9.794;2023-07-31T03:58:16;15.20;99.10
15969;DHT22;8085;53.472;9.794;2023-07-31T04:00:45;15.40;98.90
15969;DHT22;8085;53.472;9.794;2023-07-31T04:03:12;15.30;98.90
15969;DHT22;8085;53.472;9.794;2023-07-31T04:05:39;15.20;98.90
15969;DHT22;8085;53.472;9.794;2023-07-31T04:08:06;15.20;98.90
15969;DHT22;8085;53.472;9.794;2023-07-31T04:10:33;15.30;98.80
15969;DHT22;8085;53.472;9.794;2023-07-31T04:13:00;15.30;98.80
15969;DHT22;8085;53.472;9.794;2023-07-31T04:15:27;15.30;98.60
15969;DHT22;8085;53.472;9.794;2023-07-31T04:17:55;15.30;98.60
15969;DHT22;8085;53.472;9.794;2023-07-31T04:20:22;15.30;98.60
15969;DHT22;8085;53.472;9.794;2023-07-31T04:22:49;15.40;98.60
15969;DHT22;8085;53.472;9.794;2023-07-31T04:25:15;15.40;98.70
15969;DHT22;8085;53.472;9.794;2023-07-31T04:27:42;15.40;98.80
15969;DHT22;8085;53.472;9.794;2023-07-31T04:30:09;15.40;98.80
15969;DHT22;8085;53.472;9.794;2023-07-31T04:32:36;15.30;98.80
15969;DHT22;8085;53.472;9.794;2023-07-31T04:35:05;15.30;98.90
15969;DHT22;8085;53.472;9.794;2023-07-31T04:37:32;15.40;99.10
15969;DHT22;8085;53.472;9.794;2023-07-31T04:39:59;15.30;99.30
15969;DHT22;8085;53.472;9.794;2023-07-31T04:42:26;15.30;99.20
15969;DHT22;8085;53.472;9.794;2023-07-31T04:44:52;15.40;99.40
15969;DHT22;8085;53.472;9.794;2023-07-31T04:47:19;15.30;99.30
15969;DHT22;8085;53.472;9.794;2023-07-31T04:49:46;15.20;99.30
15969;DHT22;8085;53.472;9.794;2023-07-31T04:52:14;15.20;99.40
15969;DHT22;8085;53.472;9.794;2023-07-31T04:54:41;15.20;99.50
15969;DHT22;8085;53.472;9.794;2023-07-31T04:57:08;15.20;99.60
15969;DHT22;8085;53.472;9.794;2023-07-31T04:59:35;15.30;99.70
15969;DHT22;8085;53.472;9.794;2023-07-31T05:02:02;15.20;99.70
15969;DHT22;8085;53.472;9.794;2023-07-31T05:04:29;15.20;99.80
15969;DHT22;8085;53.472;9.794;2023-07-31T05:06:56;15.10;99.90
15969;DHT22;8085;53.472;9.794;2023-07-31T05:09:24;15.20;99.90
15969;DHT22;8085;53.472;9.794;2023-07-31T05:11:51;15.10;99.90
15969;DHT22;8085;53.472;9.794;2023-07-31T05:14:18;15.10;99.90
15969;DHT22;8085;53.472;9.794;2023-07-31T05:16:45;15.20;99.90
15969;DHT22;8085;53.472;9.794;2023-07-31T05:19:12;15.10;99.90
15969;DHT22;8085;53.472;9.794;2023-07-31T05:21:39;15.10;99.90
15969;DHT22;8085;53.472;9.794;2023-07-31T05:24:06;15.20;99.90
15969;DHT22;8085;53.472;9.794;2023-07-31T05:26:35;15.10;99.90
15969;DHT22;8085;53.472;9.794;2023-07-31T05:29:02;15.00;99.90
15969;DHT22;8085;53.472;9.794;2023-07-31T05:31:29;15.00;99.90
15969;DHT22;8085;53.472;9.794;2023-07-31T05:33:58;14.90;99.90
15969;DHT22;8085;53.472;9.794;2023-07-31T05:36:24;15.00;99.90
15969;DHT22;8085;53.472;9.794;2023-07-31T05:38:51;15.10;99.90
15969;DHT22;8085;53.472;9.794;2023-07-31T05:41:18;15.10;99.90
15969;DHT22;8085;53.472;9.794;2023-07-31T05:43:46;15.10;99.90
15969;DHT22;8085;53.472;9.794;2023-07-31T05:46:13;15.20;99.90
15969;DHT22;8085;53.472;9.794;2023-07-31T05:48:40;15.10;99.90
15969;DHT22;8085;53.472;9.794;2023-07-31T05:51:07;15.10;99.90
15969;DHT22;8085;53.472;9.794;2023-07-31T05:53:34;15.20;99.90
15969;DHT22;8085;53.472;9.794;2023-07-31T05:56:06;15.20;99.90
15969;DHT22;8085;53.472;9.794;2023-07-31T05:58:32;15.20;99.90
15969;DHT22;8085;53.472;9.794;2023-07-31T06:01:01;15.20;99.90
15969;DHT22;8085;53.472;9.794;2023-07-31T06:03:27;15.20;99.90
15969;DHT22;8085;53.472;9.794;2023-07-31T06:05:54;15.30;99.90
15969;DHT22;8085;53.472;9.794;2023-07-31T06:08:21;15.20;99.90
15969;DHT22;8085;53.472;9.794;2023-07-31T06:10:48;15.30;99.90
15969;DHT22;8085;53.472;9.794;2023-07-31T06:13:15;15.30;99.90
15969;DHT22;8085;53.472;9.794;2023-07-31T06:15:42;15.30;99.90
15969;DHT22;8085;53.472;9.794;2023-07-31T06:18:10;15.40;99.90
15969;DHT22;8085;53.472;9.794;2023-07-31T06:20:37;15.40;99.90
15969;DHT22;8085;53.472;9.794;2023-07-31T06:23:06;15.50;99.90
15969;DHT22;8085;53.472;9.794;2023-07-31T06:25:33;15.40;99.90
15969;DHT22;8085;53.472;9.794;2023-07-31T06:27:59;15.40;99.90
15969;DHT22;8085;53.472;9.794;2023-07-31T06:30:26;15.50;99.90
15969;DHT22;8085;53.472;9.794;2023-07-31T06:32:53;15.40;99.90
15969;DHT22;8085;53.472;9.794;2023-07-31T06:35:21;15.50;99.90
15969;DHT22;8085;53.472;9.794;2023-07-31T06:37:48;15.60;99.90
15969;DHT22;8085;53.472;9.794;2023-07-31T06:40:16;15.50;99.90
15969;DHT22;8085;53.472;9.794;2023-07-31T06:42:43;15.50;99.90
15969;DHT22;8085;53.472;9.794;2023-07-31T06:45:10;15.60;99.90
15969;DHT22;8085;53.472;9.794;2023-07-31T06:47:37;15.60;99.90
15969;DHT22;8085;53.472;9.794;2023-07-31T06:50:05;15.60;99.90
15969;DHT22;8085;53.472;9.794;2023-07-31T06:52:33;15.70;99.90
15969;DHT22;8085;53.472;9.794;2023-07-31T06:55:04;15.60;99.90
15969;DHT22;8085;53.472;9.794;2023-07-31T06:57:42;15.70;99.90
15969;DHT22;8085;53.472;9.794;2023-07-31T07:00:09;15.70;99.90
15969;DHT22;8085;53.472;9.794;2023-07-31T07:02:36;15.70;99.90
15969;DHT22;8085;53.472;9.794;2023-07-31T07:05:04;15.60;99.90
15969;DHT22;8085;53.472;9.794;2023-07-31T07:07:30;15.70;99.90
15969;DHT22;8085;53.472;9.794;2023-07-31T07:09:59;15.70;99.90
15969;DHT22;8085;53.472;9.794;2023-07-31T07:12:26;15.70;99.90
15969;DHT22;8085;53.472;9.794;2023-07-31T07:14:52;15.70;99.90
15969;DHT22;8085;53.472;9.794;2023-07-31T07:17:19;15.70;99.90
15969;DHT22;8085;53.472;9.794;2023-07-31T07:19:48;15.70;99.90
15969;DHT22;8085;53.472;9.794;2023-07-31T07:22:14;15.70;99.90
15969;DHT22;8085;53.472;9.794;2023-07-31T07:24:41;15.70;99.90
15969;DHT22;8085;53.472;9.794;2023-07-31T07:27:10;15.70;99.90
15969;DHT22;8085;53.472;9.794;2023-07-31T07:29:38;15.70;99.90
15969;DHT22;8085;53.472;9.794;2023-07-31T07:32:05;15.80;99.90
15969;DHT22;8085;53.472;9.794;2023-07-31T07:34:32;15.80;99.90
15969;DHT22;8085;53.472;9.794;2023-07-31T07:36:59;15.80;99.90
15969;DHT22;8085;53.472;9.794;2023-07-31T07:39:26;15.80;99.90
15969;DHT22;8085;53.472;9.794;2023-07-31T07:41:53;15.90;99.90
15969;DHT22;8085;53.472;9.794;2023-07-31T07:44:21;15.90;99.90
15969;DHT22;8085;53.472;9.794;2023-07-31T07:46:48;15.90;99.90
15969;DHT22;8085;53.472;9.794;2023-07-31T07:49:15;16.00;99.90
15969;DHT22;8085;53.472;9.794;2023-07-31T07:51:41;16.00;99.90
15969;DHT22;8085;53.472;9.794;2023-07-31T07:54:08;16.10;99.90
15969;DHT22;8085;53.472;9.794;2023-07-31T07:56:35;16.20;99.90
15969;DHT22;8085;53.472;9.794;2023-07-31T07:59:02;16.30;99.90
15969;DHT22;8085;53.472;9.794;2023-07-31T08:01:30;16.20;99.90
15969;DHT22;8085;53.472;9.794;2023-07-31T08:03:58;16.50;99.90
15969;DHT22;8085;53.472;9.794;2023-07-31T08:06:25;16.50;99.90
15969;DHT22;8085;53.472;9.794;2023-07-31T08:08:51;16.60;99.90
15969;DHT22;8085;53.472;9.794;2023-07-31T08:11:18;16.70;99.90
15969;DHT22;8085;53.472;9.794;2023-07-31T08:13:46;16.70;99.90
15969;DHT22;8085;53.472;9.794;2023-07-31T08:16:12;16.80;99.90
15969;DHT22;8085;53.472;9.794;2023-07-31T08:18:41;16.70;99.90
15969;DHT22;8085;53.472;9.794;2023-07-31T08:21:09;16.90;99.90
15969;DHT22;8085;53.472;9.794;2023-07-31T08:23:36;16.80;99.90
15969;DHT22;8085;53.472;9.794;2023-07-31T08:26:03;16.90;99.90
15969;DHT22;8085;53.472;9.794;2023-07-31T08:28:30;16.90;99.90
15969;DHT22;8085;53.472;9.794;2023-07-31T08:30:56;16.90;99.90
15969;DHT22;8085;53.472;9.794;2023-07-31T08:33:23;16.90;99.90
15969;DHT22;8085;53.472;9.794;2023-07-31T08:35:51;16.90;99.90
15969;DHT22;8085;53.472;9.794;2023-07-31T08:38:18;16.90;99.90
15969;DHT22;8085;53.472;9.794;2023-07-31T08:40:45;16.90;99.90
15969;DHT22;8085;53.472;9.794;2023-07-31T08:43:12;16.90;99.90
15969;DHT22;8085;53.472;9.794;2023-07-31T08:45:42;17.00;99.90
15969;DHT22;8085;53.472;9.794;2023-07-31T08:48:08;17.00;99.90
15969;DHT22;8085;53.472;9.794;2023-07-31T08:50:36;17.10;99.90
15969;DHT22;8085;53.472;9.794;2023-07-31T08:53:05;17.00;99.90
15969;DHT22;8085;53.472;9.794;2023-07-31T08:55:32;17.00;99.90
15969;DHT22;8085;53.472;9.794;2023-07-31T08:58:00;16.90;99.90
15969;DHT22;8085;53.472;9.794;2023-07-31T09:00:29;17.10;99.90
15969;DHT22;8085;53.472;9.794;2023-07-31T09:02:59;17.00;99.90
15969;DHT22;8085;53.472;9.794;2023-07-31T09:05:29;17.00;99.90
15969;DHT22;8085;53.472;9.794;2023-07-31T09:07:57;17.00;99.90
15969;DHT22;8085;53.472;9.794;2023-07-31T09:10:25;17.00;99.90
15969;DHT22;8085;53.472;9.794;2023-07-31T09:12:52;16.90;99.90
15969;DHT22;8085;53.472;9.794;2023-07-31T09:15:19;16.90;99.90
15969;DHT22;8085;53.472;9.794;2023-07-31T09:17:47;16.90;99.90
15969;DHT22;8085;53.472;9.794;2023-07-31T09:20:15;16.80;99.90
15969;DHT22;8085;53.472;9.794;2023-07-31T09:22:42;16.80;99.90
15969;DHT22;8085;53.472;9.794;2023-07-31T09:25:17;16.70;99.90
15969;DHT22;8085;53.472;9.794;2023-07-31T09:27:50;16.80;99.90
15969;DHT22;8085;53.472;9.794;2023-07-31T09:30:17;16.80;99.90
15969;DHT22;8085;53.472;9.794;2023-07-31T09:32:45;16.80;99.90
15969;DHT22;8085;53.472;9.794;2023-07-31T09:35:20;16.80;99.90
15969;DHT22;8085;53.472;9.794;2023-07-31T09:37:51;16.80;99.90
15969;DHT22;8085;53.472;9.794;2023-07-31T09:40:29;16.90;99.90
15969;DHT22;8085;53.472;9.794;2023-07-31T09:42:59;16.90;99.90
15969;DHT22;8085;53.472;9.794;2023-07-31T09:45:26;17.00;99.90
15969;DHT22;8085;53.472;9.794;2023-07-31T09:47:53;16.90;99.90
15969;DHT22;8085;53.472;9.794;2023-07-31T09:50:21;16.80;99.90
15969;DHT22;8085;53.472;9.794;2023-07-31T09:52:48;16.80;99.90
15969;DHT22;8085;53.472;9.794;2023-07-31T09:55:16;16.80;99.90
15969;DHT22;8085;53.472;9.794;2023-07-31T09:57:44;16.80;99.90
15969;DHT22;8085;53.472;9.794;2023-07-31T10:00:14;16.80;99.90
15969;DHT22;8085;53.472;9.794;2023-07-31T10:02:44;16.80;99.90
15969;DHT22;8085;53.472;9.794;2023-07-31T10:05:13;16.80;99.90
15969;DHT22;8085;53.472;9.794;2023-07-31T10:07:43;16.80;99.90
15969;DHT22;8085;53.472;9.794;2023-07-31T10:10:10;16.80;99.90
15969;DHT22;8085;53.472;9.794;2023-07-31T10:12:38;16.80;99.90
15969;DHT22;8085;53.472;9.794;2023-07-31T10:15:06;16.80;99.90
15969;DHT22;8085;53.472;9.794;2023-07-31T10:17:36;16.70;99.90
15969;DHT22;8085;53.472;9.794;2023-07-31T10:20:04;16.70;99.90
15969;DHT22;8085;53.472;9.794;2023-07-31T10:22:34;16.60;99.90
15969;DHT22;8085;53.472;9.794;2023-07-31T10:25:01;16.50;99.90
15969;DHT22;8085;53.472;9.794;2023-07-31T10:27:28;16.50;99.90
15969;DHT22;8085;53.472;9.794;2023-07-31T10:29:56;16.50;99.90
15969;DHT22;8085;53.472;9.794;2023-07-31T10:32:24;16.50;99.90
15969;DHT22;8085;53.472;9.794;2023-07-31T10:34:53;16.60;99.90
15969;DHT22;8085;53.472;9.794;2023-07-31T10:37:24;16.60;99.90
15969;DHT22;8085;53.472;9.794;2023-07-31T10:40:00;16.70;99.90
15969;DHT22;8085;53.472;9.794;2023-07-31T10:42:35;16.80;99.90
15969;DHT22;8085;53.472;9.794;2023-07-31T10:45:04;16.90;99.90
15969;DHT22;8085;53.472;9.794;2023-07-31T10:47:36;17.00;99.90
15969;DHT22;8085;53.472;9.794;2023-07-31T10:50:17;17.10;99.90
15969;DHT22;8085;53.472;9.794;2023-07-31T10:52:46;17.20;99.90
15969;DHT22;8085;53.472;9.794;2023-07-31T10:55:28;17.20;99.90
15969;DHT22;8085;53.472;9.794;2023-07-31T10:57:56;17.30;99.90
15969;DHT22;8085;53.472;9.794;2023-07-31T11:00:26;17.40;99.90
15969;DHT22;8085;53.472;9.794;2023-07-31T11:02:57;17.50;99.90
15969;DHT22;8085;53.472;9.794;2023-07-31T11:05:47;17.50;99.90
15969;DHT22;8085;53.472;9.794;2023-07-31T11:08:16;17.50;99.90
15969;DHT22;8085;53.472;9.794;2023-07-31T11:10:45;17.40;99.90
15969;DHT22;8085;53.472;9.794;2023-07-31T11:13:13;17.40;99.90
15969;DHT22;8085;53.472;9.794;2023-07-31T11:15:40;17.20;99.90
15969;DHT22;8085;53.472;9.794;2023-07-31T11:18:07;17.40;99.90
15969;DHT22;8085;53.472;9.794;2023-07-31T11:20:37;17.40;99.90
15969;DHT22;8085;53.472;9.794;2023-07-31T11:23:08;17.30;99.90
15969;DHT22;8085;53.472;9.794;2023-07-31T11:25:36;17.30;99.90
15969;DHT22;8085;53.472;9.794;2023-07-31T11:28:05;17.30;99.90
15969;DHT22;8085;53.472;9.794;2023-07-31T11:30:32;17.30;99.90
15969;DHT22;8085;53.472;9.794;2023-07-31T11:33:01;17.30;99.90
15969;DHT22;8085;53.472;9.794;2023-07-31T11:35:29;17.40;99.90
15969;DHT22;8085;53.472;9.794;2023-07-31T11:37:55;17.40;99.90
15969;DHT22;8085;53.472;9.794;2023-07-31T11:40:24;17.40;99.90
15969;DHT22;8085;53.472;9.794;2023-07-31T11:42:55;17.40;99.90
15969;DHT22;8085;53.472;9.794;2023-07-31T11:45:25;17.40;99.90
15969;DHT22;8085;53.472;9.794;2023-07-31T11:47:54;17.50;99.90
15969;DHT22;8085;53.472;9.794;2023-07-31T11:50:22;17.40;99.90
15969;DHT22;8085;53.472;9.794;2023-07-31T11:52:53;17.50;99.90
15969;DHT22;8085;53.472;9.794;2023-07-31T11:55:21;17.40;99.90
15969;DHT22;8085;53.472;9.794;2023-07-31T11:57:51;17.40;99.90
15969;DHT22;8085;53.472;9.794;2023-07-31T12:00:18;17.40;99.90
15969;DHT22;8085;53.472;9.794;2023-07-31T12:02:45;17.40;99.90
15969;DHT22;8085;53.472;9.794;2023-07-31T12:05:13;17.50;99.90
15969;DHT22;8085;53.472;9.794;2023-07-31T12:07:44;17.40;99.90
15969;DHT22;8085;53.472;9.794;2023-07-31T12:10:11;17.40;99.90
15969;DHT22;8085;53.472;9.794;2023-07-31T12:12:38;17.40;99.90
15969;DHT22;8085;53.472;9.794;2023-07-31T12:15:15;17.40;99.90
15969;DHT22;8085;53.472;9.794;2023-07-31T12:17:42;17.40;99.90
15969;DHT22;8085;53.472;9.794;2023-07-31T12:20:10;17.50;99.90
15969;DHT22;8085;53.472;9.794;2023-07-31T12:22:37;17.40;99.90
15969;DHT22;8085;53.472;9.794;2023-07-31T12:25:04;17.50;99.90
15969;DHT22;8085;53.472;9.794;2023-07-31T12:27:33;17.50;99.90
15969;DHT22;8085;53.472;9.794;2023-07-31T12:30:00;17.60;99.90
15969;DHT22;8085;53.472;9.794;2023-07-31T12:32:30;17.50;99.90
15969;DHT22;8085;53.472;9.794;2023-07-31T12:34:59;17.50;99.90
15969;DHT22;8085;53.472;9.794;2023-07-31T12:37:28;17.60;99.90
15969;DHT22;8085;53.472;9.794;2023-07-31T12:39:55;17.70;99.90
15969;DHT22;8085;53.472;9.794;2023-07-31T12:42:26;17.80;99.90
15969;DHT22;8085;53.472;9.794;2023-07-31T12:44:53;17.80;99.90
15969;DHT22;8085;53.472;9.794;2023-07-31T12:47:19;17.70;99.90
15969;DHT22;8085;53.472;9.794;2023-07-31T12:49:48;17.90;99.90
15969;DHT22;8085;53.472;9.794;2023-07-31T12:52:14;17.90;99.90
15969;DHT22;8085;53.472;9.794;2023-07-31T12:54:41;17.90;99.90
15969;DHT22;8085;53.472;9.794;2023-07-31T12:57:08;18.00;99.90
15969;DHT22;8085;53.472;9.794;2023-07-31T12:59:35;18.00;99.90
15969;DHT22;8085;53.472;9.794;2023-07-31T13:02:02;18.00;99.90
15969;DHT22;8085;53.472;9.794;2023-07-31T13:04:29;18.00;99.90
15969;DHT22;8085;53.472;9.794;2023-07-31T13:06:57;17.90;99.90
15969;DHT22;8085;53.472;9.794;2023-07-31T13:09:24;17.90;99.90
15969;DHT22;8085;53.472;9.794;2023-07-31T13:11:51;18.00;99.90
15969;DHT22;8085;53.472;9.794;2023-07-31T13:14:18;17.90;99.90
15969;DHT22;8085;53.472;9.794;2023-07-31T13:16:45;17.90;99.90
15969;DHT22;8085;53.472;9.794;2023-07-31T13:19:12;17.90;99.90
15969;DHT22;8085;53.472;9.794;2023-07-31T13:21:38;17.90;99.90
15969;DHT22;8085;53.472;9.794;2023-07-31T13:24:07;17.90;99.90
15969;DHT22;8085;53.472;9.794;2023-07-31T13:26:33;17.90;99.90
15969;DHT22;8085;53.472;9.794;2023-07-31T13:29:01;18.00;99.90
15969;DHT22;8085;53.472;9.794;2023-07-31T13:31:28;18.00;99.90
15969;DHT22;8085;53.472;9.794;2023-07-31T13:33:54;18.10;99.90
15969;DHT22;8085;53.472;9.794;2023-07-31T13:36:21;18.20;99.90
15969;DHT22;8085;53.472;9.794;2023-07-31T13:38:48;18.20;99.90
15969;DHT22;8085;53.472;9.794;2023-07-31T13:41:16;18.30;99.90
15969;DHT22;8085;53.472;9.794;2023-07-31T13:43:43;18.30;99.90
15969;DHT22;8085;53.472;9.794;2023-07-31T13:46:10;18.30;99.90
15969;DHT22;8085;53.472;9.794;2023-07-31T13:48:37;18.30;99.90
15969;DHT22;8085;53.472;9.794;2023-07-31T13:51:04;18.40;99.90
15969;DHT22;8085;53.472;9.794;2023-07-31T13:53:31;18.40;99.90
15969;DHT22;8085;53.472;9.794;2023-07-31T13:55:58;18.40;99.90
15969;DHT22;8085;53.472;9.794;2023-07-31T13:58:26;18.40;99.90
15969;DHT22;8085;53.472;9.794;2023-07-31T14:00:54;18.40;99.90
15969;DHT22;8085;53.472;9.794;2023-07-31T14:03:21;18.40;99.90
15969;DHT22;8085;53.472;9.794;2023-07-31T14:05:48;18.40;99.90
15969;DHT22;8085;53.472;9.794;2023-07-31T14:08:15;18.30;99.90
15969;DHT22;8085;53.472;9.794;2023-07-31T14:10:41;18.30;99.90
15969;DHT22;8085;53.472;9.794;2023-07-31T14:13:08;18.20;99.90
15969;DHT22;8085;53.472;9.794;2023-07-31T14:15:36;18.20;99.90
15969;DHT22;8085;53.472;9.794;2023-07-31T14:18:03;18.20;99.90
15969;DHT22;8085;53.472;9.794;2023-07-31T14:20:30;18.10;99.90
15969;DHT22;8085;53.472;9.794;2023-07-31T14:22:57;18.10;99.90
15969;DHT22;8085;53.472;9.794;2023-07-31T14:25:24;18.10;99.90
15969;DHT22;8085;53.472;9.794;2023-07-31T14:27:51;18.10;99.90
15969;DHT22;8085;53.472;9.794;2023-07-31T14:30:18;18.20;99.90
15969;DHT22;8085;53.472;9.794;2023-07-31T14:32:47;18.20;99.90
15969;DHT22;8085;53.472;9.794;2023-07-31T14:35:13;18.20;99.90
15969;DHT22;8085;53.472;9.794;2023-07-31T14:37:42;18.20;99.90
15969;DHT22;8085;53.472;9.794;2023-07-31T14:40:10;18.20;99.90
15969;DHT22;8085;53.472;9.794;2023-07-31T14:42:38;18.20;99.90
15969;DHT22;8085;53.472;9.794;2023-07-31T14:45:06;18.20;99.90
15969;DHT22;8085;53.472;9.794;2023-07-31T14:47:33;18.20;99.90
15969;DHT22;8085;53.472;9.794;2023-07-31T14:50:02;18.20;99.90
15969;DHT22;8085;53.472;9.794;2023-07-31T14:52:29;18.20;99.90
15969;DHT22;8085;53.472;9.794;2023-07-31T14:54:56;18.30;99.90
15969;DHT22;8085;53.472;9.794;2023-07-31T14:57:23;18.30;99.90
15969;DHT22;8085;53.472;9.794;2023-07-31T14:59:50;18.30;99.90
15969;DHT22;8085;53.472;9.794;2023-07-31T15:02:17;18.30;99.90
15969;DHT22;8085;53.472;9.794;2023-07-31T15:04:44;18.20;99.90
15969;DHT22;8085;53.472;9.794;2023-07-31T15:07:12;18.10;99.90
15969;DHT22;8085;53.472;9.794;2023-07-31T15:09:39;18.10;99.90
15969;DHT22;8085;53.472;9.794;2023-07-31T15:12:07;18.10;99.90
15969;DHT22;8085;53.472;9.794;2023-07-31T15:14:34;18.10;99.90
15969;DHT22;8085;53.472;9.794;2023-07-31T15:17:01;18.10;99.90
15969;DHT22;8085;53.472;9.794;2023-07-31T15:19:28;18.10;99.90
15969;DHT22;8085;53.472;9.794;2023-07-31T15:21:56;18.10;99.90
15969;DHT22;8085;53.472;9.794;2023-07-31T15:24:24;18.10;99.90
15969;DHT22;8085;53.472;9.794;2023-07-31T15:26:51;18.10;99.90
15969;DHT22;8085;53.472;9.794;2023-07-31T15:29:17;18.00;99.90
15969;DHT22;8085;53.472;9.794;2023-07-31T15:31:45;18.00;99.90
15969;DHT22;8085;53.472;9.794;2023-07-31T15:34:12;18.00;99.90
15969;DHT22;8085;53.472;9.794;2023-07-31T15:36:39;17.90;99.90
15969;DHT22;8085;53.472;9.794;2023-07-31T15:39:06;17.90;99.90
15969;DHT22;8085;53.472;9.794;2023-07-31T15:41:36;17.80;99.90
15969;DHT22;8085;53.472;9.794;2023-07-31T15:44:04;17.80;99.90
15969;DHT22;8085;53.472;9.794;2023-07-31T15:46:31;17.80;99.90
15969;DHT22;8085;53.472;9.794;2023-07-31T15:48:57;17.80;99.90